createdAt,value
2022-12-31T00:00:13.122Z,54.60
2022-12-31T00:05:15.473Z,54.48
2022-12-31T00:10:17.850Z,54.50
2022-12-31T00:15:19.978Z,54.47
2022-12-31T00:20:22.196Z,54.41
2022-12-31T00:25:24.498Z,54.27
2022-12-31T00:30:26.739Z,54.40
2022-12-31T00:35:29.035Z,54.42
2022-12-31T00:40:31.174Z,54.48
2022-12-31T00:45:33.329Z,54.32
2022-12-31T00:50:35.476Z,54.50
2022-12-31T00:55:37.703Z,54.23
2022-12-31T01:00:40.238Z,54.33
2022-12-31T01:05:42.408Z,54.30
2022-12-31T01:11:10.435Z,54.34
2022-12-31T01:16:13.405Z,54.26
2022-12-31T01:21:16.235Z,54.05
2022-12-31T01:26:19.556Z,54.06
2022-12-31T01:31:22.960Z,54.02
2022-12-31T01:36:27.990Z,54.26
2022-12-31T01:41:33.950Z,54.24
2022-12-31T01:46:41.918Z,54.23
2022-12-31T01:51:50.030Z,54.28
2022-12-31T01:56:54.338Z,54.18
2022-12-31T02:01:56.923Z,54.18
2022-12-31T02:07:05.662Z,54.24
2022-12-31T02:12:09.769Z,54.11
2022-12-31T02:17:30.265Z,54.08
2022-12-31T02:22:47.402Z,54.11
2022-12-31T02:28:01.941Z,54.32
2022-12-31T02:33:09.719Z,54.25
2022-12-31T02:38:18.555Z,54.42
2022-12-31T02:43:20.916Z,54.29
2022-12-31T02:48:31.075Z,54.38
2022-12-31T02:53:33.283Z,54.22
2022-12-31T02:59:18.078Z,54.09
2022-12-31T03:04:34.326Z,54.18
2022-12-31T03:09:37.314Z,54.18
2022-12-31T03:14:39.537Z,54.36
2022-12-31T03:20:00.602Z,54.30
2022-12-31T03:25:27.333Z,54.31
2022-12-31T03:30:30.966Z,54.31
2022-12-31T03:35:35.656Z,54.23
2022-12-31T03:40:41.236Z,54.31
2022-12-31T03:45:43.432Z,54.41
2022-12-31T03:50:45.580Z,54.48
2022-12-31T03:55:52.659Z,54.51
2022-12-31T04:00:54.954Z,54.42
2022-12-31T04:05:57.256Z,54.61
2022-12-31T04:10:59.435Z,54.51
2022-12-31T04:16:01.634Z,54.50
2022-12-31T04:21:05.533Z,54.58
2022-12-31T04:26:07.520Z,54.61
2022-12-31T04:31:11.543Z,54.69
2022-12-31T04:36:13.738Z,54.63
2022-12-31T04:41:19.119Z,54.73
2022-12-31T04:46:24.747Z,54.64
2022-12-31T04:51:28.183Z,54.72
2022-12-31T04:56:31.173Z,54.77
2022-12-31T05:01:33.620Z,54.75
2022-12-31T05:06:35.895Z,54.73
2022-12-31T05:11:38.383Z,54.63
2022-12-31T05:16:40.636Z,54.83
2022-12-31T05:21:42.792Z,54.95
2022-12-31T05:26:44.924Z,55.07
2022-12-31T05:31:47.208Z,55.06
2022-12-31T05:36:49.356Z,54.93
2022-12-31T05:41:51.496Z,54.67
2022-12-31T05:46:53.699Z,54.67
2022-12-31T05:51:55.863Z,54.65
2022-12-31T05:56:58.099Z,54.83
2022-12-31T06:02:00.628Z,54.72
2022-12-31T06:07:02.835Z,54.63
2022-12-31T06:12:05.824Z,54.44
2022-12-31T06:17:08.764Z,54.58
2022-12-31T06:22:11.017Z,54.57
2022-12-31T06:27:13.222Z,54.70
2022-12-31T06:32:16.235Z,54.69
2022-12-31T06:37:18.377Z,54.62
2022-12-31T06:42:20.558Z,54.60
2022-12-31T06:47:22.746Z,54.51
2022-12-31T06:52:24.874Z,54.45
2022-12-31T06:57:27.557Z,54.66
2022-12-31T07:02:44.344Z,54.75
2022-12-31T07:07:55.484Z,54.66
2022-12-31T07:13:12.482Z,54.66
2022-12-31T07:18:37.421Z,54.61
2022-12-31T07:23:40.801Z,54.31
2022-12-31T07:28:46.027Z,54.36
2022-12-31T07:33:48.131Z,54.44
2022-12-31T07:38:52.867Z,54.59
2022-12-31T07:44:35.730Z,54.50
2022-12-31T07:49:43.527Z,54.45
2022-12-31T07:54:45.800Z,54.37
2022-12-31T07:59:53.151Z,54.27
2022-12-31T08:05:00.751Z,54.36
2022-12-31T08:10:14.028Z,54.33
2022-12-31T08:15:24.116Z,54.63
2022-12-31T08:20:31.832Z,54.50
2022-12-31T08:26:41.513Z,54.43
2022-12-31T08:31:52.408Z,54.24
2022-12-31T08:37:10.960Z,54.49
2022-12-31T08:42:37.330Z,54.53
2022-12-31T08:47:48.417Z,54.55
2022-12-31T08:52:50.851Z,54.40
2022-12-31T08:58:34.176Z,54.34
2022-12-31T09:04:08.532Z,54.35
2022-12-31T09:09:45.791Z,54.43
2022-12-31T09:15:00.862Z,54.56
2022-12-31T09:20:04.213Z,54.33
2022-12-31T09:25:06.829Z,54.30
2022-12-31T09:30:13.193Z,54.45
2022-12-31T09:35:38.862Z,54.52
2022-12-31T09:40:48.170Z,54.58
2022-12-31T09:46:05.196Z,54.44
2022-12-31T09:51:31.402Z,54.24
2022-12-31T09:56:41.298Z,54.34
2022-12-31T10:02:14.591Z,54.43
2022-12-31T10:07:52.368Z,54.63
2022-12-31T10:13:02.010Z,54.56
2022-12-31T10:18:33.370Z,54.33
2022-12-31T10:23:47.441Z,54.41
2022-12-31T10:29:00.158Z,54.33
2022-12-31T10:34:31.882Z,54.65
2022-12-31T10:39:45.689Z,54.57
2022-12-31T10:45:15.013Z,54.45
2022-12-31T10:50:40.979Z,54.17
2022-12-31T10:56:12.444Z,54.49
2022-12-31T11:01:40.089Z,54.64
2022-12-31T11:07:23.723Z,54.69
2022-12-31T11:12:57.838Z,54.52
2022-12-31T11:18:05.777Z,54.62
2022-12-31T11:23:13.666Z,54.61
2022-12-31T11:28:29.556Z,54.89
2022-12-31T11:33:50.009Z,54.89
2022-12-31T11:39:12.041Z,54.95
2022-12-31T11:44:26.046Z,55.05
2022-12-31T11:49:37.879Z,54.87
2022-12-31T11:54:57.470Z,54.86
2022-12-31T12:00:03.178Z,54.81
2022-12-31T12:05:17.446Z,55.08
2022-12-31T12:10:27.869Z,55.06
2022-12-31T12:15:35.849Z,54.99
2022-12-31T12:20:40.339Z,55.04
2022-12-31T12:25:44.719Z,55.07
2022-12-31T12:31:04.479Z,55.06
2022-12-31T12:36:12.369Z,54.97
2022-12-31T12:41:26.668Z,54.97
2022-12-31T12:46:47.791Z,54.81
2022-12-31T12:52:18.759Z,54.85
2022-12-31T12:57:43.211Z,55.00
2022-12-31T13:03:22.296Z,55.05
2022-12-31T13:08:49.011Z,54.99
2022-12-31T13:14:06.268Z,54.96
2022-12-31T13:19:31.314Z,54.87
2022-12-31T13:24:42.013Z,55.06
2022-12-31T13:29:46.360Z,55.07
2022-12-31T13:34:52.059Z,54.98
2022-12-31T13:40:17.947Z,54.82
2022-12-31T13:45:30.171Z,54.79
2022-12-31T13:50:39.840Z,54.95
2022-12-31T13:55:58.137Z,54.96
2022-12-31T14:01:44.054Z,55.04
2022-12-31T14:06:58.804Z,55.06
2022-12-31T14:12:27.450Z,54.77
2022-12-31T14:17:41.713Z,54.64
2022-12-31T14:23:03.034Z,54.63
2022-12-31T14:28:10.551Z,54.65
2022-12-31T14:33:39.943Z,54.75
2022-12-31T14:39:04.594Z,54.82
2022-12-31T14:44:45.176Z,54.80
2022-12-31T14:50:04.975Z,54.69
2022-12-31T14:55:10.053Z,54.51
2022-12-31T15:00:32.461Z,54.69
2022-12-31T15:05:38.737Z,54.75
2022-12-31T15:11:09.600Z,54.87
2022-12-31T15:16:43.683Z,54.87
2022-12-31T15:21:55.854Z,54.65
2022-12-31T15:27:01.836Z,54.73
2022-12-31T15:32:08.194Z,54.77
2022-12-31T15:37:34.049Z,54.85
2022-12-31T15:42:50.235Z,54.83
2022-12-31T15:47:58.780Z,54.87
2022-12-31T15:53:03.954Z,54.78
2022-12-31T15:58:11.695Z,54.66
2022-12-31T16:03:25.516Z,54.71
2022-12-31T16:08:31.843Z,54.67
2022-12-31T16:13:37.066Z,54.48
2022-12-31T16:18:41.829Z,54.45
2022-12-31T16:23:51.512Z,54.49
2022-12-31T16:29:00.227Z,54.81
2022-12-31T16:34:11.696Z,54.88
2022-12-31T16:39:26.591Z,54.77
2022-12-31T16:44:30.453Z,54.81
2022-12-31T16:49:33.643Z,54.68
2022-12-31T16:54:40.852Z,54.65
2022-12-31T16:59:47.737Z,54.54
2022-12-31T17:04:56.130Z,54.88
2022-12-31T17:10:16.051Z,54.83
2022-12-31T17:15:27.826Z,54.73
2022-12-31T17:20:33.067Z,54.69
2022-12-31T17:25:38.199Z,54.74
2022-12-31T17:30:40.885Z,54.89
2022-12-31T17:35:44.763Z,55.11
2022-12-31T17:40:52.796Z,55.06
2022-12-31T17:45:55.397Z,54.90
2022-12-31T17:51:00.188Z,54.87
2022-12-31T17:56:06.650Z,54.92
2022-12-31T18:01:10.333Z,55.12
2022-12-31T18:06:16.483Z,55.11
2022-12-31T18:11:22.465Z,54.99
2022-12-31T18:16:24.769Z,54.97
2022-12-31T18:21:32.836Z,54.91
2022-12-31T18:26:34.920Z,55.02
2022-12-31T18:31:37.394Z,55.23
2022-12-31T18:36:40.348Z,55.29
2022-12-31T18:41:51.405Z,55.11
2022-12-31T18:46:53.695Z,55.10
2022-12-31T18:51:57.338Z,55.22
2022-12-31T18:56:59.817Z,55.40
2022-12-31T19:02:02.044Z,55.38
2022-12-31T19:07:04.387Z,55.21
2022-12-31T19:12:06.745Z,55.16
2022-12-31T19:22:15.323Z,55.31
2022-12-31T19:27:17.570Z,55.44
2022-12-31T19:32:19.699Z,55.22
2022-12-31T19:37:21.881Z,55.22
2022-12-31T19:42:24.058Z,55.17
2022-12-31T19:47:26.233Z,55.42
2022-12-31T19:52:28.357Z,55.37
2022-12-31T19:57:30.589Z,55.34
2022-12-31T20:02:32.840Z,55.02
2022-12-31T20:07:35.196Z,54.94
2022-12-31T20:12:43.975Z,55.41
2022-12-31T20:17:46.634Z,55.25
2022-12-31T20:22:48.740Z,55.34
2022-12-31T20:27:56.178Z,55.17
2022-12-31T20:32:58.345Z,55.31
2022-12-31T20:38:00.519Z,55.27
2022-12-31T20:43:02.639Z,55.16
2022-12-31T20:48:04.873Z,55.17
2022-12-31T20:53:07.458Z,55.04
2022-12-31T20:58:09.587Z,55.08
2022-12-31T21:03:36.751Z,55.18
2022-12-31T21:08:35.162Z,54.89
2022-12-31T21:13:37.545Z,54.80
2022-12-31T21:18:39.672Z,54.93
2022-12-31T21:23:41.881Z,55.29
2022-12-31T21:28:44.266Z,55.04
2022-12-31T21:33:47.660Z,55.32
2022-12-31T21:38:49.819Z,55.10
2022-12-31T21:43:52.005Z,54.91
2022-12-31T21:48:56.014Z,54.71
2022-12-31T21:53:58.574Z,54.73
2022-12-31T21:59:19.202Z,54.88
2022-12-31T22:04:59.815Z,55.08
2022-12-31T22:09:43.619Z,54.97
2022-12-31T22:15:15.428Z,54.86
2022-12-31T22:20:26.247Z,54.80
2022-12-31T22:25:29.554Z,54.83
2022-12-31T22:30:32.478Z,54.95
2022-12-31T22:35:34.759Z,54.99
2022-12-31T22:40:36.971Z,55.05
2022-12-31T22:45:39.065Z,55.00
2022-12-31T22:50:41.169Z,54.88
2022-12-31T22:55:43.363Z,54.76
2022-12-31T23:00:45.918Z,54.74
2022-12-31T23:05:52.785Z,54.94
2022-12-31T23:11:01.334Z,55.12
2022-12-31T23:16:22.494Z,55.04
2022-12-31T23:21:42.990Z,54.96
2022-12-31T23:26:45.242Z,55.01
2022-12-31T23:31:47.467Z,54.86
2022-12-31T23:36:49.857Z,54.79
2022-12-31T23:41:52.243Z,54.88
2022-12-31T23:46:54.991Z,55.03
2022-12-31T23:51:57.223Z,55.00
2022-12-31T23:56:59.414Z,54.95
